createdAt,value
2019-03-15T00:00:28.459Z,20.10
2019-03-15T00:03:09.544Z,11.27
2019-03-15T00:05:50.398Z,10.17
2019-03-15T00:08:31.382Z,13.07
2019-03-15T00:11:11.829Z,8.80
2019-03-15T00:13:52.690Z,13.73
2019-03-15T00:16:33.503Z,11.53
2019-03-15T00:19:13.868Z,8.90
2019-03-15T00:21:54.434Z,10.90
2019-03-15T00:24:35.384Z,10.10
2019-03-15T00:27:16.249Z,6.47
2019-03-15T00:29:56.493Z,7.23
2019-03-15T00:32:37.393Z,9.03
2019-03-15T00:35:18.366Z,8.20
2019-03-15T00:37:59.734Z,8.60
2019-03-15T00:40:40.478Z,7.00
2019-03-15T00:43:21.422Z,6.90
2019-03-15T00:46:01.895Z,9.37
2019-03-15T00:48:42.438Z,12.87
2019-03-15T00:51:23.117Z,14.93
2019-03-15T00:54:04.355Z,7.97
2019-03-15T00:56:45.030Z,6.50
2019-03-15T00:59:25.763Z,10.27
2019-03-15T01:02:06.734Z,9.97
2019-03-15T01:04:47.159Z,15.60
2019-03-15T01:07:27.978Z,5.37
2019-03-15T01:10:08.910Z,6.13
2019-03-15T01:12:49.768Z,10.77
2019-03-15T01:15:30.510Z,4.90
2019-03-15T01:18:11.169Z,4.00
2019-03-15T01:20:52.221Z,6.10
2019-03-15T01:23:32.857Z,10.50
2019-03-15T01:26:13.742Z,9.93
2019-03-15T01:28:54.522Z,7.53
2019-03-15T01:31:35.430Z,9.37
2019-03-15T01:34:15.765Z,12.30
2019-03-15T01:36:56.830Z,7.60
2019-03-15T01:39:37.557Z,13.20
2019-03-15T01:42:18.177Z,9.77
2019-03-15T01:44:59.206Z,8.77
2019-03-15T01:47:39.645Z,10.37
2019-03-15T01:50:20.225Z,4.97
2019-03-15T01:53:00.877Z,14.30
2019-03-15T01:55:41.667Z,13.17
2019-03-15T01:58:22.680Z,6.87
2019-03-15T02:01:04.543Z,10.03
2019-03-15T02:03:45.826Z,8.37
2019-03-15T02:06:26.208Z,6.40
2019-03-15T02:09:09.327Z,13.43
2019-03-15T02:11:50.314Z,7.53
2019-03-15T02:14:31.377Z,5.70
2019-03-15T02:17:12.214Z,7.57
2019-03-15T02:19:53.273Z,10.37
2019-03-15T02:22:34.428Z,8.80
2019-03-15T02:25:15.306Z,8.70
2019-03-15T02:27:56.570Z,7.90
2019-03-15T02:30:37.522Z,8.70
2019-03-15T02:33:18.579Z,10.80
2019-03-15T02:35:59.242Z,10.17
2019-03-15T02:38:40.148Z,9.17
2019-03-15T02:41:21.067Z,7.40
2019-03-15T02:44:02.135Z,6.37
2019-03-15T02:46:43.141Z,8.50
2019-03-15T02:49:23.762Z,8.30
2019-03-15T02:52:04.744Z,11.13
2019-03-15T02:54:45.157Z,6.70
2019-03-15T02:57:25.915Z,10.67
2019-03-15T03:00:06.465Z,11.50
2019-03-15T03:02:46.903Z,10.97
2019-03-15T03:05:27.570Z,10.33
2019-03-15T03:08:08.325Z,10.77
2019-03-15T03:10:49.430Z,10.93
2019-03-15T03:13:30.727Z,6.40
2019-03-15T03:16:11.747Z,10.53
2019-03-15T03:18:52.798Z,7.90
2019-03-15T03:21:33.807Z,8.50
2019-03-15T03:24:14.667Z,7.60
2019-03-15T03:26:55.458Z,9.53
2019-03-15T03:29:36.073Z,9.93
2019-03-15T03:32:04.506Z,10.53
2019-03-15T03:34:52.278Z,11.53
2019-03-15T03:37:39.728Z,8.50
2019-03-15T03:40:27.190Z,13.67
2019-03-15T03:43:14.944Z,7.60
2019-03-15T03:46:02.730Z,8.27
2019-03-15T03:48:50.497Z,9.00
2019-03-15T03:51:38.278Z,8.53
2019-03-15T03:54:26.411Z,11.23
2019-03-15T03:57:14.185Z,9.90
2019-03-15T04:00:01.985Z,8.97
2019-03-15T04:02:53.090Z,10.83
2019-03-15T04:05:32.210Z,9.77
2019-03-15T04:08:12.961Z,10.60
2019-03-15T04:10:54.118Z,4.83
2019-03-15T04:13:35.205Z,12.57
2019-03-15T04:16:16.093Z,10.03
2019-03-15T04:18:57.274Z,10.00
2019-03-15T04:21:37.722Z,10.70
2019-03-15T04:24:18.831Z,13.97
2019-03-15T04:26:59.989Z,14.40
2019-03-15T04:29:40.990Z,14.10
2019-03-15T04:32:21.942Z,12.80
2019-03-15T04:35:02.786Z,10.23
2019-03-15T04:37:43.818Z,11.60
2019-03-15T04:40:24.658Z,15.00
2019-03-15T04:43:05.397Z,15.17
2019-03-15T04:45:46.235Z,12.60
2019-03-15T04:48:26.969Z,21.50
2019-03-15T04:51:07.917Z,19.50
2019-03-15T04:53:48.751Z,24.20
2019-03-15T04:56:29.758Z,21.97
2019-03-15T04:59:10.935Z,25.13
2019-03-15T05:01:51.981Z,19.73
2019-03-15T05:04:32.723Z,30.83
2019-03-15T05:07:13.241Z,30.00
2019-03-15T05:09:54.031Z,23.90
2019-03-15T05:12:34.374Z,29.40
2019-03-15T05:15:15.045Z,34.40
2019-03-15T05:17:56.025Z,30.27
2019-03-15T05:20:36.968Z,31.27
2019-03-15T05:23:17.174Z,24.70
2019-03-15T05:25:58.098Z,25.27
2019-03-15T05:28:39.023Z,30.30
2019-03-15T05:31:19.893Z,29.47
2019-03-15T05:34:00.706Z,32.23
2019-03-15T05:36:41.778Z,28.60
2019-03-15T05:39:23.049Z,26.27
2019-03-15T05:42:03.572Z,25.87
2019-03-15T05:44:44.209Z,32.17
2019-03-15T05:47:25.329Z,23.40
2019-03-15T05:50:06.225Z,28.40
2019-03-15T05:52:46.917Z,24.80
2019-03-15T05:55:27.994Z,24.07
2019-03-15T05:58:08.828Z,25.77
2019-03-15T06:00:49.166Z,21.60
2019-03-15T06:03:29.981Z,29.50
2019-03-15T06:06:11.145Z,28.33
2019-03-15T06:08:51.773Z,31.83
2019-03-15T06:11:32.593Z,26.93
2019-03-15T06:14:13.607Z,29.83
2019-03-15T06:16:54.262Z,26.50
2019-03-15T06:19:34.780Z,25.37
2019-03-15T06:22:15.198Z,25.97
2019-03-15T06:24:55.808Z,24.93
2019-03-15T06:27:36.566Z,25.60
2019-03-15T06:30:17.553Z,28.17
2019-03-15T06:32:58.034Z,38.83
2019-03-15T06:35:38.755Z,31.23
2019-03-15T06:38:19.227Z,24.93
2019-03-15T06:41:00.583Z,32.03
2019-03-15T06:43:41.400Z,27.13
2019-03-15T06:46:21.871Z,21.30
2019-03-15T06:49:02.418Z,33.30
2019-03-15T06:51:43.295Z,28.43
2019-03-15T06:54:24.290Z,25.13
2019-03-15T06:57:04.762Z,34.63
2019-03-15T06:59:45.732Z,25.60
2019-03-15T07:02:26.265Z,32.60
2019-03-15T07:05:06.811Z,29.43
2019-03-15T07:07:47.836Z,24.70
2019-03-15T07:10:28.758Z,27.00
2019-03-15T07:13:09.780Z,27.60
2019-03-15T07:15:50.265Z,27.13
2019-03-15T07:18:31.137Z,31.53
2019-03-15T07:21:12.391Z,24.13
2019-03-15T07:23:53.394Z,26.00
2019-03-15T07:26:34.307Z,29.50
2019-03-15T07:29:14.980Z,31.93
2019-03-15T07:31:55.882Z,31.73
2019-03-15T07:34:37.012Z,29.57
2019-03-15T07:37:17.637Z,19.13
2019-03-15T07:39:57.891Z,32.57
2019-03-15T07:42:38.600Z,21.87
2019-03-15T07:45:19.869Z,27.97
2019-03-15T07:48:00.342Z,26.93
2019-03-15T07:50:41.141Z,30.53
2019-03-15T07:53:21.755Z,27.10
2019-03-15T07:56:02.251Z,28.67
2019-03-15T07:58:43.052Z,26.57
2019-03-15T08:01:24.218Z,31.20
2019-03-15T08:04:16.163Z,24.60
2019-03-15T08:06:47.822Z,26.80
2019-03-15T08:09:28.725Z,32.13
2019-03-15T08:12:09.181Z,30.70
2019-03-15T08:14:49.838Z,24.90
2019-03-15T08:17:30.678Z,35.83
2019-03-15T08:20:11.474Z,25.50
2019-03-15T08:22:52.545Z,26.30
2019-03-15T08:25:33.293Z,21.70
2019-03-15T08:28:13.942Z,29.17
2019-03-15T08:30:54.489Z,31.60
2019-03-15T08:33:35.346Z,28.67
2019-03-15T08:36:16.246Z,26.30
2019-03-15T08:38:57.639Z,30.67
2019-03-15T08:41:38.336Z,25.87
2019-03-15T08:44:19.309Z,28.77
2019-03-15T08:47:00.354Z,23.13
2019-03-15T08:49:40.563Z,22.90
2019-03-15T08:52:21.269Z,22.13
2019-03-15T08:55:05.373Z,24.60
2019-03-15T08:57:45.249Z,22.33
2019-03-15T09:00:26.365Z,24.20
2019-03-15T09:03:06.786Z,28.90
2019-03-15T09:05:47.905Z,25.30
2019-03-15T09:08:29.191Z,23.63
2019-03-15T09:11:10.018Z,22.90
2019-03-15T09:13:50.738Z,26.30
2019-03-15T09:16:31.138Z,26.57
2019-03-15T09:19:12.058Z,23.80
2019-03-15T09:21:52.617Z,23.17
2019-03-15T09:24:33.673Z,28.53
2019-03-15T09:27:02.123Z,25.53
2019-03-15T09:29:49.887Z,24.33
2019-03-15T09:32:37.927Z,22.30
2019-03-15T09:35:25.711Z,32.33
2019-03-15T09:38:13.725Z,24.10
2019-03-15T09:41:01.534Z,17.03
2019-03-15T09:43:49.350Z,19.30
2019-03-15T09:46:37.128Z,21.93
2019-03-15T09:49:24.919Z,24.17
2019-03-15T09:52:12.723Z,23.03
2019-03-15T09:55:00.508Z,16.83
2019-03-15T09:57:48.264Z,14.40
2019-03-15T10:00:36.073Z,15.77
2019-03-15T10:03:23.841Z,15.97
2019-03-15T10:06:15.713Z,16.93
2019-03-15T10:09:01.427Z,15.80
2019-03-15T10:11:49.190Z,13.43
2019-03-15T10:14:30.655Z,18.47
2019-03-15T10:17:11.351Z,13.50
2019-03-15T10:19:52.458Z,13.30
2019-03-15T10:22:33.205Z,14.57
2019-03-15T10:25:13.865Z,15.27
2019-03-15T10:27:54.502Z,17.90
2019-03-15T10:30:35.101Z,16.97
2019-03-15T10:33:15.676Z,17.47
2019-03-15T10:35:56.305Z,13.47
2019-03-15T10:38:37.385Z,15.73
2019-03-15T10:41:18.235Z,16.50
2019-03-15T10:43:59.194Z,19.07
2019-03-15T10:46:40.497Z,14.37
2019-03-15T10:49:21.610Z,14.13
2019-03-15T10:52:02.388Z,15.40
2019-03-15T10:54:43.163Z,16.00
2019-03-15T10:57:23.394Z,18.53
2019-03-15T11:00:04.489Z,16.13
2019-03-15T11:02:44.947Z,18.90
2019-03-15T11:05:26.115Z,20.80
2019-03-15T11:08:07.006Z,15.60
2019-03-15T11:10:47.468Z,22.47
2019-03-15T11:13:28.373Z,21.87
2019-03-15T11:16:09.143Z,20.43
2019-03-15T11:18:49.614Z,19.47
2019-03-15T11:21:30.266Z,17.67
2019-03-15T11:24:11.055Z,32.37
2019-03-15T11:26:51.738Z,18.53
2019-03-15T11:29:32.175Z,19.13
2019-03-15T11:32:12.791Z,16.90
2019-03-15T11:34:53.641Z,19.53
2019-03-15T11:37:34.338Z,17.63
2019-03-15T11:40:14.961Z,18.67
2019-03-15T11:42:55.525Z,20.63
2019-03-15T11:45:36.550Z,21.50
2019-03-15T11:54:04.793Z,17.43
2019-03-15T11:56:52.587Z,13.90
2019-03-15T11:59:40.362Z,15.20
2019-03-15T12:02:28.122Z,11.47
2019-03-15T12:05:16.005Z,13.70
2019-03-15T12:08:03.838Z,10.50
2019-03-15T12:10:51.598Z,9.93
2019-03-15T12:13:39.382Z,9.43
2019-03-15T12:16:27.173Z,9.83
2019-03-15T12:19:14.957Z,8.50
2019-03-15T12:22:06.577Z,11.73
2019-03-15T12:24:52.244Z,9.53
2019-03-15T12:27:40.021Z,6.13
2019-03-15T12:30:27.806Z,8.53
2019-03-15T12:33:15.570Z,6.77
2019-03-15T12:36:03.622Z,9.23
2019-03-15T12:38:53.138Z,6.33
2019-03-15T12:41:40.913Z,4.50
2019-03-15T12:44:28.682Z,4.67
2019-03-15T12:47:16.774Z,4.67
2019-03-15T12:49:57.878Z,6.63
2019-03-15T12:52:47.258Z,3.93
2019-03-15T12:55:20.673Z,4.13
2019-03-15T12:58:01.575Z,4.13
2019-03-15T13:00:42.158Z,4.53
2019-03-15T13:03:23.004Z,3.80
2019-03-15T13:06:03.575Z,3.57
2019-03-15T13:08:47.270Z,5.10
2019-03-15T13:11:27.228Z,4.93
2019-03-15T13:14:07.609Z,2.97
2019-03-15T13:16:51.301Z,5.70
2019-03-15T13:19:32.390Z,4.90
2019-03-15T13:22:13.474Z,3.13
2019-03-15T13:24:54.297Z,8.17
2019-03-15T13:27:35.047Z,4.27
2019-03-15T13:30:15.993Z,4.13
2019-03-15T13:32:56.953Z,5.00
2019-03-15T13:35:37.758Z,4.30
2019-03-15T13:38:19.033Z,5.97
2019-03-15T13:40:59.870Z,6.03
2019-03-15T13:43:40.814Z,6.23
2019-03-15T13:46:21.983Z,7.53
2019-03-15T13:49:02.654Z,7.07
2019-03-15T13:51:43.302Z,4.60
2019-03-15T13:54:24.076Z,8.53
2019-03-15T13:57:04.942Z,9.23
2019-03-15T13:59:45.957Z,9.53
2019-03-15T14:02:26.591Z,10.20
2019-03-15T14:05:07.447Z,7.77
2019-03-15T14:07:48.307Z,7.07
2019-03-15T14:10:29.172Z,7.87
2019-03-15T14:13:12.017Z,11.13
2019-03-15T14:15:52.288Z,9.13
2019-03-15T14:18:33.057Z,9.37
2019-03-15T14:21:16.877Z,9.73
2019-03-15T14:23:57.528Z,8.73
2019-03-15T14:26:38.114Z,9.60
2019-03-15T14:29:19.204Z,6.53
2019-03-15T14:31:59.575Z,7.23
2019-03-15T14:34:40.111Z,10.97
2019-03-15T14:37:20.659Z,10.77
2019-03-15T14:40:01.162Z,10.10
2019-03-15T14:42:41.674Z,10.73
2019-03-15T14:45:22.408Z,6.20
2019-03-15T14:48:03.022Z,12.33
2019-03-15T14:50:43.893Z,19.47
2019-03-15T14:53:24.637Z,12.63
2019-03-15T14:56:05.594Z,10.03
2019-03-15T14:58:46.208Z,6.27
2019-03-15T15:01:27.176Z,9.47
2019-03-15T15:04:08.414Z,6.67
2019-03-15T15:06:49.214Z,18.20
2019-03-15T15:09:30.182Z,9.50
2019-03-15T15:12:10.783Z,9.67
2019-03-15T15:14:51.766Z,13.63
2019-03-15T15:17:32.203Z,13.23
2019-03-15T15:20:13.226Z,11.60
2019-03-15T15:22:55.265Z,16.20
2019-03-15T15:25:35.690Z,12.60
2019-03-15T15:28:16.567Z,13.20
2019-03-15T15:30:57.562Z,10.23
2019-03-15T15:33:38.505Z,17.83
2019-03-15T15:36:19.245Z,9.23
2019-03-15T15:39:00.048Z,12.20
2019-03-15T15:41:41.022Z,8.27
2019-03-15T15:44:22.038Z,11.33
2019-03-15T15:47:03.095Z,6.43
2019-03-15T15:49:43.839Z,13.37
2019-03-15T15:52:24.466Z,9.73
2019-03-15T15:55:05.666Z,11.60
2019-03-15T15:57:46.408Z,15.57
2019-03-15T16:00:27.183Z,14.80
2019-03-15T16:03:07.833Z,10.93
2019-03-15T16:05:48.964Z,14.07
2019-03-15T16:08:29.352Z,13.60
2019-03-15T16:11:10.158Z,15.70
2019-03-15T16:13:50.909Z,16.47
2019-03-15T16:16:31.647Z,13.23
2019-03-15T16:19:12.807Z,12.87
2019-03-15T16:21:53.566Z,13.77
2019-03-15T16:24:34.499Z,9.20
2019-03-15T16:27:15.606Z,16.10
2019-03-15T16:29:56.308Z,13.33
2019-03-15T16:32:36.919Z,12.80
2019-03-15T16:35:17.648Z,7.53
2019-03-15T16:37:58.403Z,15.97
2019-03-15T16:40:38.964Z,21.23
2019-03-15T16:43:07.478Z,16.37
2019-03-15T16:45:55.282Z,20.60
2019-03-15T16:48:43.093Z,10.00
2019-03-15T16:51:30.886Z,10.20
2019-03-15T16:53:59.442Z,12.97
2019-03-15T16:56:47.209Z,18.50
2019-03-15T16:59:34.692Z,18.53
2019-03-15T17:02:22.498Z,14.63
2019-03-15T17:05:10.914Z,15.40
2019-03-15T17:07:58.992Z,19.67
2019-03-15T17:10:46.766Z,16.67
2019-03-15T17:13:34.564Z,13.80
2019-03-15T17:16:22.707Z,14.63
2019-03-15T17:19:10.493Z,19.03
2019-03-15T17:21:58.303Z,18.60
2019-03-15T17:24:46.411Z,13.50
2019-03-15T17:27:34.196Z,18.57
2019-03-15T17:30:21.989Z,15.97
2019-03-15T17:33:05.899Z,13.63
2019-03-15T17:35:45.360Z,12.33
2019-03-15T17:38:26.247Z,17.27
2019-03-15T17:41:06.906Z,19.63
2019-03-15T17:43:47.859Z,20.77
2019-03-15T17:46:28.734Z,14.33
2019-03-15T17:49:09.755Z,20.03
2019-03-15T17:51:50.367Z,12.47
2019-03-15T17:54:31.245Z,13.73
2019-03-15T17:57:12.160Z,21.80
2019-03-15T17:59:52.565Z,22.30
2019-03-15T18:02:33.209Z,15.57
2019-03-15T18:05:13.486Z,11.97
2019-03-15T18:07:53.946Z,16.87
2019-03-15T18:10:34.751Z,13.43
2019-03-15T18:13:15.936Z,17.50
2019-03-15T18:15:56.736Z,20.40
2019-03-15T18:18:37.438Z,16.57
2019-03-15T18:21:18.230Z,19.03
2019-03-15T18:23:58.723Z,17.27
2019-03-15T18:26:39.729Z,18.33
2019-03-15T18:29:26.216Z,19.20
2019-03-15T18:32:03.283Z,21.97
2019-03-15T18:34:44.155Z,21.50
2019-03-15T18:37:24.751Z,18.13
2019-03-15T18:40:05.798Z,20.60
2019-03-15T18:42:46.670Z,21.97
2019-03-15T18:45:27.518Z,16.47
2019-03-15T18:48:08.050Z,14.33
2019-03-15T18:50:48.718Z,18.03
2019-03-15T18:53:29.729Z,25.13
2019-03-15T18:56:10.826Z,13.03
2019-03-15T18:58:51.643Z,21.90
2019-03-15T19:01:32.301Z,24.43
2019-03-15T19:04:12.787Z,13.77
2019-03-15T19:06:53.594Z,20.37
2019-03-15T19:09:34.134Z,22.17
2019-03-15T19:12:14.566Z,27.03
2019-03-15T19:14:55.149Z,15.30
2019-03-15T19:17:35.863Z,20.13
2019-03-15T19:20:16.266Z,12.67
2019-03-15T19:22:57.201Z,22.07
2019-03-15T19:25:38.179Z,10.03
2019-03-15T19:28:19.252Z,18.13
2019-03-15T19:31:00.455Z,21.07
2019-03-15T19:33:40.820Z,15.17
2019-03-15T19:36:21.983Z,19.47
2019-03-15T19:39:02.713Z,25.93
2019-03-15T19:41:43.470Z,24.67
2019-03-15T19:44:23.955Z,17.40
2019-03-15T19:47:04.427Z,16.57
2019-03-15T19:49:45.444Z,26.87
2019-03-15T19:52:26.230Z,24.50
2019-03-15T19:55:06.687Z,14.30
2019-03-15T19:57:47.679Z,24.90
2019-03-15T20:00:28.582Z,10.17
2019-03-15T20:03:09.336Z,23.97
2019-03-15T20:05:50.093Z,20.90
2019-03-15T20:08:31.270Z,12.80
2019-03-15T20:11:12.174Z,15.77
2019-03-15T20:13:52.770Z,18.13
2019-03-15T20:16:33.394Z,26.20
2019-03-15T20:19:13.926Z,26.20
2019-03-15T20:21:54.689Z,21.73
2019-03-15T20:24:36.637Z,22.97
2019-03-15T20:27:17.309Z,15.97
2019-03-15T20:29:58.026Z,20.43
2019-03-15T20:32:38.771Z,25.47
2019-03-15T20:35:28.387Z,20.37
2019-03-15T20:38:16.403Z,21.57
2019-03-15T20:41:06.307Z,21.33
2019-03-15T20:43:54.101Z,23.10
2019-03-15T20:46:42.008Z,21.80
2019-03-15T20:49:29.785Z,25.87
2019-03-15T20:52:17.994Z,19.10
2019-03-15T20:55:06.253Z,24.97
2019-03-15T20:57:54.035Z,26.90
2019-03-15T21:00:42.182Z,16.37
2019-03-15T21:03:30.215Z,20.30
2019-03-15T21:06:18.094Z,28.53
2019-03-15T21:09:06.918Z,31.07
2019-03-15T21:11:54.722Z,27.80
2019-03-15T21:14:42.514Z,20.33
2019-03-15T21:17:30.565Z,21.73
2019-03-15T21:20:22.197Z,17.53
2019-03-15T21:23:08.735Z,23.40
2019-03-15T21:25:49.685Z,19.97
2019-03-15T21:28:30.503Z,19.43
2019-03-15T21:31:11.505Z,25.63
2019-03-15T21:33:52.253Z,24.57
2019-03-15T21:36:33.299Z,21.13
2019-03-15T21:39:14.018Z,24.57
2019-03-15T21:41:54.785Z,20.83
2019-03-15T21:44:35.887Z,25.47
2019-03-15T21:47:16.919Z,20.97
2019-03-15T21:49:57.858Z,21.13
2019-03-15T21:52:38.606Z,23.37
2019-03-15T21:55:19.786Z,13.50
2019-03-15T21:58:00.707Z,21.27
2019-03-15T22:00:41.505Z,18.30
2019-03-15T22:03:22.329Z,25.60
2019-03-15T22:06:02.847Z,23.10
2019-03-15T22:08:43.698Z,19.27
2019-03-15T22:11:24.294Z,22.23
2019-03-15T22:14:05.336Z,12.77
2019-03-15T22:16:46.466Z,19.13
2019-03-15T22:19:27.763Z,29.10
2019-03-15T22:22:08.324Z,21.67
2019-03-15T22:24:48.925Z,14.97
2019-03-15T22:27:29.458Z,19.43
2019-03-15T22:30:10.400Z,23.10
2019-03-15T22:32:50.977Z,20.33
2019-03-15T22:35:32.042Z,21.20
2019-03-15T22:38:25.217Z,26.57
2019-03-15T22:40:55.772Z,19.77
2019-03-15T22:43:36.671Z,21.00
2019-03-15T22:46:17.292Z,20.07
2019-03-15T22:48:58.582Z,32.47
2019-03-15T22:51:39.365Z,13.07
2019-03-15T22:54:20.294Z,21.33
2019-03-15T22:57:01.147Z,30.83
2019-03-15T22:59:42.174Z,26.50
2019-03-15T23:02:22.997Z,22.27
2019-03-15T23:05:03.720Z,12.93
2019-03-15T23:07:44.299Z,30.03
2019-03-15T23:10:25.200Z,24.40
2019-03-15T23:13:06.043Z,22.17
2019-03-15T23:15:46.986Z,12.97
2019-03-15T23:18:27.442Z,19.63
2019-03-15T23:21:08.255Z,26.70
2019-03-15T23:23:48.682Z,24.17
2019-03-15T23:26:29.333Z,26.47
2019-03-15T23:29:10.274Z,26.07
2019-03-15T23:31:51.025Z,23.50
2019-03-15T23:34:32.056Z,18.50
2019-03-15T23:37:12.713Z,22.40
2019-03-15T23:39:54.038Z,24.17
2019-03-15T23:42:34.754Z,29.10
2019-03-15T23:45:15.383Z,18.97
2019-03-15T23:47:55.891Z,19.23
2019-03-15T23:50:36.919Z,22.50
2019-03-15T23:53:17.242Z,18.90
2019-03-15T23:55:58.162Z,13.83
2019-03-15T23:58:39.280Z,14.63
